Time,TemperatureF,DewpointF,PressureIn,WindDirection,WindDirectionDegrees,WindSpeedMPH,WindSpeedGustMPH,Humidity,HourlyPrecipIn,Conditions,Clouds,dailyrainin,SolarRadiationWatts/m^2,SoftwareType,DateUTC
2013-10-16 00:09:00,43.8,31.0,30.06,SW,219,0.0,-999.0,61,-99.99,,,0.00,0,weatherlink.com 1.10,2013-10-16 07:09:00,
2013-10-16 00:24:00,42.8,30.0,30.05,SW,217,5.0,-999.0,61,-99.99,,,0.00,0,weatherlink.com 1.10,2013-10-16 07:24:00,
2013-10-16 00:39:00,42.3,28.0,30.05,SW,217,0.0,-999.0,58,-99.99,,,0.00,0,weatherlink.com 1.10,2013-10-16 07:39:00,
2013-10-16 00:54:00,39.4,28.0,30.05,SW,217,3.0,-999.0,63,-99.99,,,0.00,0,weatherlink.com 1.10,2013-10-16 07:54:00,
2013-10-16 01:09:00,37.8,28.0,30.04,SW,219,5.0,-999.0,67,-99.99,,,0.00,0,weatherlink.com 1.10,2013-10-16 08:09:00,
2013-10-16 01:24:00,36.0,27.0,30.04,SW,219,7.0,-999.0,69,-99.99,,,0.00,0,weatherlink.com 1.10,2013-10-16 08:24:00,
2013-10-16 01:39:00,37.3,28.0,30.04,SW,221,6.0,-999.0,69,-99.99,,,0.00,0,weatherlink.com 1.10,2013-10-16 08:39:00,
2013-10-16 01:54:00,38.2,28.0,30.04,SW,223,3.0,-999.0,66,-99.99,,,0.00,0,weatherlink.com 1.10,2013-10-16 08:54:00,
2013-10-16 02:09:00,37.2,27.0,30.04,SW,225,6.0,-999.0,68,-99.99,,,0.00,0,weatherlink.com 1.10,2013-10-16 09:09:00,
2013-10-16 02:24:00,38.9,28.0,30.04,WSW,248,4.0,-999.0,64,-99.99,,,0.00,0,weatherlink.com 1.10,2013-10-16 09:24:00,
2013-10-16 02:39:00,39.1,28.0,30.03,WSW,248,3.0,-999.0,64,-99.99,,,0.00,0,weatherlink.com 1.10,2013-10-16 09:39:00,
2013-10-16 02:54:00,40.1,27.0,30.03,WSW,248,5.0,-999.0,61,-99.99,,,0.00,0,weatherlink.com 1.10,2013-10-16 09:54:00,
2013-10-16 03:09:00,40.1,27.0,30.03,WSW,247,5.0,-999.0,61,-99.99,,,0.00,0,weatherlink.com 1.10,2013-10-16 10:09:00,
2013-10-16 03:24:00,41.8,29.0,30.03,WSW,247,4.0,-999.0,60,-99.99,,,0.00,0,weatherlink.com 1.10,2013-10-16 10:24:00,
2013-10-16 03:39:00,40.4,27.0,30.02,WSW,237,4.0,-999.0,60,-99.99,,,0.00,0,weatherlink.com 1.10,2013-10-16 10:39:00,
2013-10-16 03:54:00,41.5,29.0,30.02,WSW,238,4.0,-999.0,62,-99.99,,,0.00,0,weatherlink.com 1.10,2013-10-16 10:54:00,
2013-10-16 04:09:00,42.9,30.0,30.01,WSW,238,3.0,-999.0,60,-99.99,,,0.00,0,weatherlink.com 1.10,2013-10-16 11:09:00,
2013-10-16 04:24:00,41.8,28.0,30.01,SW,226,5.0,-999.0,59,-99.99,,,0.00,0,weatherlink.com 1.10,2013-10-16 11:24:00,
2013-10-16 04:39:00,40.2,28.0,30.01,SW,226,4.0,-999.0,61,-99.99,,,0.00,0,weatherlink.com 1.10,2013-10-16 11:39:00,
2013-10-16 04:54:00,42.7,28.0,30.01,SW,226,3.0,-999.0,57,-99.99,,,0.00,0,weatherlink.com 1.10,2013-10-16 11:54:00,
2013-10-16 05:09:00,42.0,28.0,30.01,SW,225,5.0,-999.0,57,-99.99,,,0.00,0,weatherlink.com 1.10,2013-10-16 12:09:00,
2013-10-16 05:24:00,40.5,27.0,30.01,SW,223,2.0,-999.0,60,-99.99,,,0.00,0,weatherlink.com 1.10,2013-10-16 12:24:00,
2013-10-16 05:39:00,40.8,28.0,30.01,SW,223,0.0,-999.0,61,-99.99,,,0.00,0,weatherlink.com 1.10,2013-10-16 12:39:00,
2013-10-16 05:54:00,41.1,28.0,30.01,SW,223,2.0,-999.0,60,-99.99,,,0.00,0,weatherlink.com 1.10,2013-10-16 12:54:00,
2013-10-16 06:09:00,40.7,27.0,30.01,SW,223,4.0,-999.0,59,-99.99,,,0.00,0,weatherlink.com 1.10,2013-10-16 13:09:00,
2013-10-16 06:24:00,38.6,26.0,30.01,SW,221,6.0,-999.0,60,-99.99,,,0.00,0,weatherlink.com 1.10,2013-10-16 13:24:00,
2013-10-16 06:39:00,41.1,28.0,30.01,SW,220,0.0,-999.0,60,-99.99,,,0.00,0,weatherlink.com 1.10,2013-10-16 13:39:00,
2013-10-16 06:54:00,42.8,29.0,30.01,SW,220,0.0,-999.0,59,-99.99,,,0.00,0,weatherlink.com 1.10,2013-10-16 13:54:00,
2013-10-16 07:09:00,42.6,27.0,30.02,SW,220,0.0,-999.0,55,-99.99,,,0.00,0,weatherlink.com 1.10,2013-10-16 14:09:00,
2013-10-16 07:24:00,42.7,29.0,30.02,SW,220,0.0,-999.0,58,-99.99,,,0.00,0,weatherlink.com 1.10,2013-10-16 14:24:00,
2013-10-16 07:39:00,42.3,29.0,30.02,SW,220,0.0,-999.0,59,-99.99,,,0.00,7,weatherlink.com 1.10,2013-10-16 14:39:00,
2013-10-16 07:54:00,42.2,29.0,30.03,SW,220,0.0,-999.0,59,-99.99,,,0.00,12,weatherlink.com 1.10,2013-10-16 14:54:00,
2013-10-16 08:09:00,42.5,28.0,30.03,SW,222,0.0,-999.0,57,-99.99,,,0.00,23,weatherlink.com 1.10,2013-10-16 15:09:00,
2013-10-16 08:24:00,39.7,25.0,30.02,SW,222,6.0,-999.0,57,-99.99,,,0.00,156,weatherlink.com 1.10,2013-10-16 15:24:00,
2013-10-16 08:39:00,42.2,28.0,30.02,SW,221,0.0,-999.0,57,-99.99,,,0.00,199,weatherlink.com 1.10,2013-10-16 15:39:00,
2013-10-16 08:54:00,45.8,30.0,30.02,SW,221,1.0,-999.0,55,-99.99,,,0.00,241,weatherlink.com 1.10,2013-10-16 15:54:00,
2013-10-16 09:09:00,46.0,30.0,30.02,SW,221,0.0,-999.0,53,-99.99,,,0.00,281,weatherlink.com 1.10,2013-10-16 16:09:00,
2013-10-16 09:24:00,46.8,30.0,30.02,SW,216,0.0,-999.0,52,-99.99,,,0.00,322,weatherlink.com 1.10,2013-10-16 16:24:00,
2013-10-16 09:39:00,48.1,31.0,30.02,SW,215,0.0,-999.0,52,-99.99,,,0.00,362,weatherlink.com 1.10,2013-10-16 16:39:00,
2013-10-16 09:54:00,48.8,32.0,30.02,SSW,211,0.0,-999.0,52,-99.99,,,0.00,396,weatherlink.com 1.10,2013-10-16 16:54:00,
2013-10-16 10:09:00,50.6,32.0,30.02,SSW,210,0.0,-999.0,50,-99.99,,,0.00,432,weatherlink.com 1.10,2013-10-16 17:09:00,
2013-10-16 10:24:00,52.0,33.0,30.02,SSW,200,2.0,-999.0,49,-99.99,,,0.00,462,weatherlink.com 1.10,2013-10-16 17:24:00,
2013-10-16 10:39:00,54.5,34.0,30.02,SSW,198,0.0,-999.0,46,-99.99,,,0.00,494,weatherlink.com 1.10,2013-10-16 17:39:00,
2013-10-16 10:54:00,55.9,32.0,30.02,ESE,119,2.0,-999.0,41,-99.99,,,0.00,522,weatherlink.com 1.10,2013-10-16 17:54:00,
2013-10-16 11:09:00,56.1,32.0,30.02,ENE,68,0.0,-999.0,41,-99.99,,,0.00,540,weatherlink.com 1.10,2013-10-16 18:09:00,
2013-10-16 11:24:00,56.4,32.0,30.02,ENE,69,0.0,-999.0,39,-99.99,,,0.00,617,weatherlink.com 1.10,2013-10-16 18:24:00,
2013-10-16 11:39:00,56.7,31.0,30.02,ENE,62,0.0,-999.0,38,-99.99,,,0.00,580,weatherlink.com 1.10,2013-10-16 18:39:00,
2013-10-16 11:54:00,58.0,30.0,30.02,ENE,59,3.0,-999.0,35,-99.99,,,0.00,592,weatherlink.com 1.10,2013-10-16 18:54:00,
2013-10-16 12:09:00,58.4,28.0,30.02,NE,36,3.0,-999.0,32,-99.99,,,0.00,598,weatherlink.com 1.10,2013-10-16 19:09:00,
2013-10-16 12:24:00,58.9,30.0,30.02,NE,55,0.0,-999.0,33,-99.99,,,0.00,605,weatherlink.com 1.10,2013-10-16 19:24:00,
2013-10-16 12:39:00,60.3,29.0,30.02,NE,55,4.0,-999.0,30,-99.99,,,0.00,610,weatherlink.com 1.10,2013-10-16 19:39:00,
2013-10-16 12:54:00,61.2,29.0,30.01,ENE,78,2.0,-999.0,30,-99.99,,,0.00,601,weatherlink.com 1.10,2013-10-16 19:54:00,
2013-10-16 13:09:00,61.4,30.0,30.00,ENE,71,3.0,-999.0,30,-99.99,,,0.00,606,weatherlink.com 1.10,2013-10-16 20:09:00,
2013-10-16 13:24:00,60.7,29.0,30.01,North,355,6.0,-999.0,30,-99.99,,,0.00,598,weatherlink.com 1.10,2013-10-16 20:24:00,
2013-10-16 13:39:00,61.2,30.0,30.00,North,10,2.0,-999.0,31,-99.99,,,0.00,589,weatherlink.com 1.10,2013-10-16 20:39:00,
2013-10-16 13:54:00,60.4,29.0,30.00,North,355,6.0,-999.0,31,-99.99,,,0.00,552,weatherlink.com 1.10,2013-10-16 20:54:00,
2013-10-16 14:09:00,60.1,29.0,30.00,ENE,58,8.0,-999.0,31,-99.99,,,0.00,554,weatherlink.com 1.10,2013-10-16 21:09:00,
2013-10-16 14:24:00,60.5,29.0,30.00,NNE,28,7.0,-999.0,30,-99.99,,,0.00,512,weatherlink.com 1.10,2013-10-16 21:24:00,
2013-10-16 14:39:00,60.7,30.0,30.00,North,9,2.0,-999.0,31,-99.99,,,0.00,519,weatherlink.com 1.10,2013-10-16 21:39:00,
2013-10-16 14:54:00,60.5,29.0,29.99,NE,37,4.0,-999.0,30,-99.99,,,0.00,483,weatherlink.com 1.10,2013-10-16 21:54:00,
2013-10-16 15:09:00,60.1,29.0,29.99,NE,36,6.0,-999.0,31,-99.99,,,0.00,446,weatherlink.com 1.10,2013-10-16 22:09:00,
2013-10-16 15:24:00,59.1,28.0,30.00,North,5,4.0,-999.0,30,-99.99,,,0.00,417,weatherlink.com 1.10,2013-10-16 22:24:00,
2013-10-16 15:39:00,59.6,28.0,29.99,North,11,2.0,-999.0,30,-99.99,,,0.00,381,weatherlink.com 1.10,2013-10-16 22:39:00,
2013-10-16 15:54:00,60.1,28.0,29.99,NNW,338,10.0,-999.0,30,-99.99,,,0.00,345,weatherlink.com 1.10,2013-10-16 22:54:00,
2013-10-16 16:09:00,59.2,28.0,29.99,NNE,24,2.0,-999.0,30,-99.99,,,0.00,301,weatherlink.com 1.10,2013-10-16 23:09:00,
2013-10-16 16:24:00,59.1,28.0,29.99,North,360,8.0,-999.0,30,-99.99,,,0.00,271,weatherlink.com 1.10,2013-10-16 23:24:00,
2013-10-16 16:39:00,58.4,27.0,30.00,NNE,14,4.0,-999.0,30,-99.99,,,0.00,213,weatherlink.com 1.10,2013-10-16 23:39:00,
2013-10-16 16:54:00,58.0,27.0,30.00,NNE,29,2.0,-999.0,31,-99.99,,,0.00,151,weatherlink.com 1.10,2013-10-16 23:54:00,
2013-10-16 17:10:00,57.5,28.0,30.00,North,360,8.0,-999.0,32,-99.99,,,0.00,102,weatherlink.com 1.10,2013-10-17 00:10:00,
2013-10-16 17:24:00,56.2,26.0,30.01,NNE,22,9.0,-999.0,31,-99.99,,,0.00,46,weatherlink.com 1.10,2013-10-17 00:24:00,
2013-10-16 17:39:00,54.9,26.0,30.01,North,5,5.0,-999.0,33,-99.99,,,0.00,25,weatherlink.com 1.10,2013-10-17 00:39:00,
2013-10-16 17:54:00,54.2,26.0,30.02,North,5,0.0,-999.0,34,-99.99,,,0.00,19,weatherlink.com 1.10,2013-10-17 00:54:00,
2013-10-16 18:09:00,53.3,26.0,30.02,North,5,0.0,-999.0,35,-99.99,,,0.00,9,weatherlink.com 1.10,2013-10-17 01:09:00,
2013-10-16 18:24:00,52.2,27.0,30.02,North,360,2.0,-999.0,38,-99.99,,,0.00,0,weatherlink.com 1.10,2013-10-17 01:24:00,
2013-10-16 18:39:00,51.2,27.0,30.03,North,360,0.0,-999.0,40,-99.99,,,0.00,0,weatherlink.com 1.10,2013-10-17 01:39:00,
2013-10-16 18:54:00,50.9,28.0,30.03,North,360,3.0,-999.0,42,-99.99,,,0.00,0,weatherlink.com 1.10,2013-10-17 01:54:00,
2013-10-16 19:09:00,50.6,28.0,30.04,North,355,4.0,-999.0,42,-99.99,,,0.00,0,weatherlink.com 1.10,2013-10-17 02:09:00,
2013-10-16 19:24:00,50.0,28.0,30.04,NW,316,2.0,-999.0,43,-99.99,,,0.00,0,weatherlink.com 1.10,2013-10-17 02:24:00,
2013-10-16 19:39:00,49.6,29.0,30.04,NW,315,3.0,-999.0,46,-99.99,,,0.00,0,weatherlink.com 1.10,2013-10-17 02:39:00,
2013-10-16 19:54:00,49.6,29.0,30.04,NW,312,3.0,-999.0,46,-99.99,,,0.00,0,weatherlink.com 1.10,2013-10-17 02:54:00,
2013-10-16 20:09:00,49.4,30.0,30.04,NW,308,4.0,-999.0,47,-99.99,,,0.00,0,weatherlink.com 1.10,2013-10-17 03:09:00,
2013-10-16 20:24:00,49.2,30.0,30.05,NW,308,3.0,-999.0,48,-99.99,,,0.00,0,weatherlink.com 1.10,2013-10-17 03:24:00,
2013-10-16 20:39:00,48.7,31.0,30.05,NW,308,3.0,-999.0,50,-99.99,,,0.00,0,weatherlink.com 1.10,2013-10-17 03:39:00,
2013-10-16 20:54:00,48.4,31.0,30.05,NW,308,2.0,-999.0,51,-99.99,,,0.00,0,weatherlink.com 1.10,2013-10-17 03:54:00,
2013-10-16 21:09:00,48.8,31.0,30.05,NW,308,0.0,-999.0,51,-99.99,,,0.00,0,weatherlink.com 1.10,2013-10-17 04:09:00,
2013-10-16 21:24:00,47.9,31.0,30.05,NW,308,0.0,-999.0,53,-99.99,,,0.00,0,weatherlink.com 1.10,2013-10-17 04:24:00,
2013-10-16 21:39:00,48.3,32.0,30.06,NW,308,2.0,-999.0,53,-99.99,,,0.00,0,weatherlink.com 1.10,2013-10-17 04:39:00,
2013-10-16 21:54:00,48.0,32.0,30.07,NW,308,1.0,-999.0,54,-99.99,,,0.00,0,weatherlink.com 1.10,2013-10-17 04:54:00,
2013-10-16 22:09:00,47.7,32.0,30.07,NW,308,3.0,-999.0,55,-99.99,,,0.00,0,weatherlink.com 1.10,2013-10-17 05:09:00,
2013-10-16 22:24:00,46.3,32.0,30.07,NW,308,2.0,-999.0,57,-99.99,,,0.00,0,weatherlink.com 1.10,2013-10-17 05:24:00,
2013-10-16 22:39:00,46.9,32.0,30.07,NW,308,3.0,-999.0,57,-99.99,,,0.00,0,weatherlink.com 1.10,2013-10-17 05:39:00,
2013-10-16 22:54:00,45.6,32.0,30.07,NW,307,3.0,-999.0,59,-99.99,,,0.00,0,weatherlink.com 1.10,2013-10-17 05:54:00,
2013-10-16 23:09:00,44.8,31.0,30.07,West,270,6.0,-999.0,59,-99.99,,,0.00,0,weatherlink.com 1.10,2013-10-17 06:09:00,
2013-10-16 23:24:00,44.1,32.0,30.07,WSW,255,5.0,-999.0,62,-99.99,,,0.00,0,weatherlink.com 1.10,2013-10-17 06:24:00,
2013-10-16 23:39:00,44.4,32.0,30.07,WSW,254,5.0,-999.0,62,-99.99,,,0.00,0,weatherlink.com 1.10,2013-10-17 06:39:00,
2013-10-16 23:54:00,44.2,32.0,30.07,WSW,254,5.0,-999.0,63,-99.99,,,0.00,0,weatherlink.com 1.10,2013-10-17 06:54:00,